sensor_id;sensor_type;location;lat;lon;timestamp;P1;durP1;ratioP1;P2;durP2;ratioP2
14118;SDS011;7138;49.246;9.100;2023-04-02T00:01:53;2.72;;;0.90;;
14118;SDS011;7138;49.246;9.100;2023-04-02T00:04:19;3.38;;;0.98;;
14118;SDS011;7138;49.246;9.100;2023-04-02T00:06:55;4.35;;;1.00;;
14118;SDS011;7138;49.246;9.100;2023-04-02T00:12:23;5.30;;;0.90;;
14118;SDS011;7138;49.246;9.100;2023-04-02T00:14:51;3.42;;;0.90;;
14118;SDS011;7138;49.246;9.100;2023-04-02T00:17:20;3.75;;;1.00;;
14118;SDS011;7138;49.246;9.100;2023-04-02T00:19:50;4.17;;;1.20;;
14118;SDS011;7138;49.246;9.100;2023-04-02T00:22:23;4.53;;;0.80;;
14118;SDS011;7138;49.246;9.100;2023-04-02T00:24:55;2.03;;;0.77;;
14118;SDS011;7138;49.246;9.100;2023-04-02T00:27:24;5.63;;;0.80;;
14118;SDS011;7138;49.246;9.100;2023-04-02T00:29:51;2.33;;;0.80;;
14118;SDS011;7138;49.246;9.100;2023-04-02T00:32:20;3.40;;;0.77;;
14118;SDS011;7138;49.246;9.100;2023-04-02T00:34:50;3.58;;;0.73;;
14118;SDS011;7138;49.246;9.100;2023-04-02T00:37:19;4.05;;;1.00;;
14118;SDS011;7138;49.246;9.100;2023-04-02T00:39:49;3.53;;;0.90;;
14118;SDS011;7138;49.246;9.100;2023-04-02T00:42:21;4.90;;;0.90;;
14118;SDS011;7138;49.246;9.100;2023-04-02T00:44:49;2.85;;;0.77;;
14118;SDS011;7138;49.246;9.100;2023-04-02T00:47:19;2.75;;;0.82;;
14118;SDS011;7138;49.246;9.100;2023-04-02T00:49:52;4.15;;;1.17;;
14118;SDS011;7138;49.246;9.100;2023-04-02T00:52:24;3.95;;;1.10;;
14118;SDS011;7138;49.246;9.100;2023-04-02T00:54:58;4.70;;;1.05;;
14118;SDS011;7138;49.246;9.100;2023-04-02T00:57:30;4.32;;;1.00;;
14118;SDS011;7138;49.246;9.100;2023-04-02T00:59:58;4.15;;;1.13;;
14118;SDS011;7138;49.246;9.100;2023-04-02T01:02:40;2.80;;;0.90;;
14118;SDS011;7138;49.246;9.100;2023-04-02T01:05:19;2.45;;;0.90;;
14118;SDS011;7138;49.246;9.100;2023-04-02T01:07:50;3.88;;;1.00;;
14118;SDS011;7138;49.246;9.100;2023-04-02T01:10:39;5.13;;;1.10;;
14118;SDS011;7138;49.246;9.100;2023-04-02T01:13:24;4.07;;;1.00;;
14118;SDS011;7138;49.246;9.100;2023-04-02T01:16:03;4.93;;;1.15;;
14118;SDS011;7138;49.246;9.100;2023-04-02T01:18:44;3.83;;;0.98;;
14118;SDS011;7138;49.246;9.100;2023-04-02T01:21:30;3.13;;;1.00;;
14118;SDS011;7138;49.246;9.100;2023-04-02T01:24:16;3.83;;;1.05;;
14118;SDS011;7138;49.246;9.100;2023-04-02T01:26:54;4.00;;;1.10;;
14118;SDS011;7138;49.246;9.100;2023-04-02T01:29:25;4.78;;;1.30;;
14118;SDS011;7138;49.246;9.100;2023-04-02T01:31:56;6.43;;;1.52;;
14118;SDS011;7138;49.246;9.100;2023-04-02T01:34:26;3.70;;;1.30;;
14118;SDS011;7138;49.246;9.100;2023-04-02T01:37:05;4.70;;;1.38;;
14118;SDS011;7138;49.246;9.100;2023-04-02T01:39:51;3.50;;;1.20;;
14118;SDS011;7138;49.246;9.100;2023-04-02T01:42:32;5.07;;;1.30;;
14118;SDS011;7138;49.246;9.100;2023-04-02T01:45:08;3.03;;;1.30;;
14118;SDS011;7138;49.246;9.100;2023-04-02T01:47:38;3.92;;;1.40;;
14118;SDS011;7138;49.246;9.100;2023-04-02T01:50:10;3.30;;;1.40;;
14118;SDS011;7138;49.246;9.100;2023-04-02T01:52:48;3.40;;;1.60;;
14118;SDS011;7138;49.246;9.100;2023-04-02T01:55:23;6.85;;;1.67;;
14118;SDS011;7138;49.246;9.100;2023-04-02T01:57:56;3.95;;;1.70;;
14118;SDS011;7138;49.246;9.100;2023-04-02T02:00:26;2.97;;;1.50;;
14118;SDS011;7138;49.246;9.100;2023-04-02T02:02:54;3.50;;;1.80;;
14118;SDS011;7138;49.246;9.100;2023-04-02T02:05:21;4.80;;;1.88;;
14118;SDS011;7138;49.246;9.100;2023-04-02T02:07:48;4.60;;;1.80;;
14118;SDS011;7138;49.246;9.100;2023-04-02T02:10:17;5.82;;;1.58;;
14118;SDS011;7138;49.246;9.100;2023-04-02T02:12:49;4.43;;;1.60;;
14118;SDS011;7138;49.246;9.100;2023-04-02T02:15:17;3.75;;;1.45;;
14118;SDS011;7138;49.246;9.100;2023-04-02T02:17:46;4.90;;;1.30;;
14118;SDS011;7138;49.246;9.100;2023-04-02T02:20:13;3.03;;;1.20;;
14118;SDS011;7138;49.246;9.100;2023-04-02T02:22:42;2.65;;;1.10;;
14118;SDS011;7138;49.246;9.100;2023-04-02T02:25:12;3.63;;;1.33;;
14118;SDS011;7138;49.246;9.100;2023-04-02T02:27:47;2.47;;;1.10;;
14118;SDS011;7138;49.246;9.100;2023-04-02T02:30:22;4.63;;;1.23;;
14118;SDS011;7138;49.246;9.100;2023-04-02T02:32:56;3.17;;;1.10;;
14118;SDS011;7138;49.246;9.100;2023-04-02T02:35:31;3.83;;;1.20;;
14118;SDS011;7138;49.246;9.100;2023-04-02T02:38:20;3.63;;;1.15;;
14118;SDS011;7138;49.246;9.100;2023-04-02T02:41:16;4.05;;;1.20;;
14118;SDS011;7138;49.246;9.100;2023-04-02T02:43:52;4.38;;;1.05;;
14118;SDS011;7138;49.246;9.100;2023-04-02T02:46:26;4.13;;;0.95;;
14118;SDS011;7138;49.246;9.100;2023-04-02T02:48:55;2.95;;;1.00;;
14118;SDS011;7138;49.246;9.100;2023-04-02T02:51:26;3.35;;;0.95;;
14118;SDS011;7138;49.246;9.100;2023-04-02T02:54:02;3.67;;;0.82;;
14118;SDS011;7138;49.246;9.100;2023-04-02T02:56:29;2.30;;;0.60;;
14118;SDS011;7138;49.246;9.100;2023-04-02T02:59:00;3.42;;;0.80;;
14118;SDS011;7138;49.246;9.100;2023-04-02T03:01:31;2.67;;;0.82;;
14118;SDS011;7138;49.246;9.100;2023-04-02T03:03:59;2.60;;;0.80;;
14118;SDS011;7138;49.246;9.100;2023-04-02T03:06:25;2.05;;;0.75;;
14118;SDS011;7138;49.246;9.100;2023-04-02T03:08:52;2.90;;;0.90;;
14118;SDS011;7138;49.246;9.100;2023-04-02T03:11:31;4.10;;;1.00;;
14118;SDS011;7138;49.246;9.100;2023-04-02T03:14:06;4.35;;;1.00;;
14118;SDS011;7138;49.246;9.100;2023-04-02T03:16:43;3.08;;;1.17;;
14118;SDS011;7138;49.246;9.100;2023-04-02T03:19:19;3.03;;;1.02;;
14118;SDS011;7138;49.246;9.100;2023-04-02T03:21:56;4.60;;;1.55;;
14118;SDS011;7138;49.246;9.100;2023-04-02T03:24:33;3.53;;;1.10;;
14118;SDS011;7138;49.246;9.100;2023-04-02T03:27:10;3.78;;;1.20;;
14118;SDS011;7138;49.246;9.100;2023-04-02T03:29:42;3.42;;;1.10;;
14118;SDS011;7138;49.246;9.100;2023-04-02T03:32:18;4.13;;;1.10;;
14118;SDS011;7138;49.246;9.100;2023-04-02T03:34:52;3.25;;;1.10;;
14118;SDS011;7138;49.246;9.100;2023-04-02T03:37:25;4.38;;;1.20;;
14118;SDS011;7138;49.246;9.100;2023-04-02T03:39:59;3.60;;;1.30;;
14118;SDS011;7138;49.246;9.100;2023-04-02T03:42:36;3.08;;;1.20;;
14118;SDS011;7138;49.246;9.100;2023-04-02T03:45:09;4.43;;;1.10;;
14118;SDS011;7138;49.246;9.100;2023-04-02T03:47:43;3.08;;;1.10;;
14118;SDS011;7138;49.246;9.100;2023-04-02T03:50:20;3.13;;;1.23;;
14118;SDS011;7138;49.246;9.100;2023-04-02T03:52:55;3.45;;;1.15;;
14118;SDS011;7138;49.246;9.100;2023-04-02T03:55:23;6.43;;;1.30;;
14118;SDS011;7138;49.246;9.100;2023-04-02T03:57:56;4.72;;;1.50;;
14118;SDS011;7138;49.246;9.100;2023-04-02T04:00:31;4.25;;;1.27;;
14118;SDS011;7138;49.246;9.100;2023-04-02T04:03:04;3.83;;;1.50;;
14118;SDS011;7138;49.246;9.100;2023-04-02T04:05:42;5.35;;;1.83;;
14118;SDS011;7138;49.246;9.100;2023-04-02T04:08:15;4.20;;;2.33;;
14118;SDS011;7138;49.246;9.100;2023-04-02T04:10:48;4.53;;;1.50;;
14118;SDS011;7138;49.246;9.100;2023-04-02T04:13:19;4.05;;;1.50;;
14118;SDS011;7138;49.246;9.100;2023-04-02T04:15:56;3.80;;;1.45;;
14118;SDS011;7138;49.246;9.100;2023-04-02T04:18:30;4.18;;;1.50;;
14118;SDS011;7138;49.246;9.100;2023-04-02T04:21:10;5.03;;;1.77;;
14118;SDS011;7138;49.246;9.100;2023-04-02T04:23:53;5.43;;;1.60;;
14118;SDS011;7138;49.246;9.100;2023-04-02T04:26:23;3.35;;;1.70;;
14118;SDS011;7138;49.246;9.100;2023-04-02T04:29:00;3.55;;;1.60;;
14118;SDS011;7138;49.246;9.100;2023-04-02T04:31:42;5.65;;;1.50;;
14118;SDS011;7138;49.246;9.100;2023-04-02T04:34:13;4.57;;;1.60;;
14118;SDS011;7138;49.246;9.100;2023-04-02T04:36:48;3.00;;;1.27;;
14118;SDS011;7138;49.246;9.100;2023-04-02T04:39:20;4.13;;;1.30;;
14118;SDS011;7138;49.246;9.100;2023-04-02T04:41:56;3.80;;;1.38;;
14118;SDS011;7138;49.246;9.100;2023-04-02T04:44:30;5.50;;;1.48;;
14118;SDS011;7138;49.246;9.100;2023-04-02T04:47:09;4.72;;;1.50;;
14118;SDS011;7138;49.246;9.100;2023-04-02T04:49:43;2.97;;;1.40;;
14118;SDS011;7138;49.246;9.100;2023-04-02T04:52:18;3.60;;;1.38;;
14118;SDS011;7138;49.246;9.100;2023-04-02T04:54:48;6.88;;;1.60;;
14118;SDS011;7138;49.246;9.100;2023-04-02T04:57:19;4.28;;;1.42;;
14118;SDS011;7138;49.246;9.100;2023-04-02T04:59:57;4.28;;;1.70;;
14118;SDS011;7138;49.246;9.100;2023-04-02T05:02:32;4.45;;;1.88;;
14118;SDS011;7138;49.246;9.100;2023-04-02T05:05:13;3.97;;;1.92;;
14118;SDS011;7138;49.246;9.100;2023-04-02T05:07:46;5.53;;;1.77;;
14118;SDS011;7138;49.246;9.100;2023-04-02T05:10:18;4.97;;;1.95;;
14118;SDS011;7138;49.246;9.100;2023-04-02T05:12:58;3.78;;;1.75;;
14118;SDS011;7138;49.246;9.100;2023-04-02T05:15:31;7.45;;;2.10;;
14118;SDS011;7138;49.246;9.100;2023-04-02T05:18:10;3.75;;;1.73;;
14118;SDS011;7138;49.246;9.100;2023-04-02T05:20:49;5.85;;;2.10;;
14118;SDS011;7138;49.246;9.100;2023-04-02T05:23:22;4.65;;;1.90;;
14118;SDS011;7138;49.246;9.100;2023-04-02T05:25:52;3.58;;;1.65;;
14118;SDS011;7138;49.246;9.100;2023-04-02T05:28:28;4.40;;;1.90;;
14118;SDS011;7138;49.246;9.100;2023-04-02T05:31:03;8.15;;;3.65;;
14118;SDS011;7138;49.246;9.100;2023-04-02T05:33:36;4.85;;;2.05;;
14118;SDS011;7138;49.246;9.100;2023-04-02T05:36:04;4.00;;;2.00;;
14118;SDS011;7138;49.246;9.100;2023-04-02T05:38:35;4.60;;;1.92;;
14118;SDS011;7138;49.246;9.100;2023-04-02T05:41:11;5.65;;;1.90;;
14118;SDS011;7138;49.246;9.100;2023-04-02T05:43:47;5.25;;;1.90;;
14118;SDS011;7138;49.246;9.100;2023-04-02T05:46:23;4.95;;;1.80;;
14118;SDS011;7138;49.246;9.100;2023-04-02T05:48:55;4.07;;;1.60;;
14118;SDS011;7138;49.246;9.100;2023-04-02T05:51:25;6.75;;;2.65;;
14118;SDS011;7138;49.246;9.100;2023-04-02T05:54:01;3.65;;;1.70;;
14118;SDS011;7138;49.246;9.100;2023-04-02T05:56:31;4.47;;;1.75;;
14118;SDS011;7138;49.246;9.100;2023-04-02T05:59:05;3.85;;;1.70;;
14118;SDS011;7138;49.246;9.100;2023-04-02T06:01:41;4.75;;;1.80;;
14118;SDS011;7138;49.246;9.100;2023-04-02T06:04:15;3.97;;;1.85;;
14118;SDS011;7138;49.246;9.100;2023-04-02T06:06:50;5.20;;;1.70;;
14118;SDS011;7138;49.246;9.100;2023-04-02T06:09:34;3.75;;;1.80;;
14118;SDS011;7138;49.246;9.100;2023-04-02T06:12:12;4.38;;;1.75;;
14118;SDS011;7138;49.246;9.100;2023-04-02T06:14:46;5.40;;;1.92;;
14118;SDS011;7138;49.246;9.100;2023-04-02T06:17:13;4.03;;;1.75;;
14118;SDS011;7138;49.246;9.100;2023-04-02T06:19:40;3.92;;;1.95;;
14118;SDS011;7138;49.246;9.100;2023-04-02T06:22:08;4.35;;;1.70;;
14118;SDS011;7138;49.246;9.100;2023-04-02T06:24:45;3.20;;;1.60;;
14118;SDS011;7138;49.246;9.100;2023-04-02T06:27:19;3.42;;;1.60;;
14118;SDS011;7138;49.246;9.100;2023-04-02T06:29:49;3.38;;;1.80;;
14118;SDS011;7138;49.246;9.100;2023-04-02T06:32:23;4.60;;;1.73;;
14118;SDS011;7138;49.246;9.100;2023-04-02T06:34:50;6.90;;;2.00;;
14118;SDS011;7138;49.246;9.100;2023-04-02T06:37:20;3.33;;;1.45;;
14118;SDS011;7138;49.246;9.100;2023-04-02T06:39:55;4.97;;;1.70;;
14118;SDS011;7138;49.246;9.100;2023-04-02T06:42:23;3.30;;;1.75;;
14118;SDS011;7138;49.246;9.100;2023-04-02T06:44:54;5.68;;;1.98;;
14118;SDS011;7138;49.246;9.100;2023-04-02T06:47:25;5.28;;;2.20;;
14118;SDS011;7138;49.246;9.100;2023-04-02T06:49:57;5.63;;;2.17;;
14118;SDS011;7138;49.246;9.100;2023-04-02T06:52:33;4.95;;;2.30;;
14118;SDS011;7138;49.246;9.100;2023-04-02T06:55:09;3.53;;;2.00;;
14118;SDS011;7138;49.246;9.100;2023-04-02T06:57:54;5.40;;;2.40;;
14118;SDS011;7138;49.246;9.100;2023-04-02T07:00:22;6.53;;;2.70;;
14118;SDS011;7138;49.246;9.100;2023-04-02T07:02:54;6.25;;;2.50;;
14118;SDS011;7138;49.246;9.100;2023-04-02T07:05:24;4.95;;;2.40;;
14118;SDS011;7138;49.246;9.100;2023-04-02T07:07:49;6.82;;;2.42;;
14118;SDS011;7138;49.246;9.100;2023-04-02T07:10:17;4.70;;;2.63;;
14118;SDS011;7138;49.246;9.100;2023-04-02T07:12:44;5.65;;;2.60;;
14118;SDS011;7138;49.246;9.100;2023-04-02T07:15:10;6.32;;;2.50;;
14118;SDS011;7138;49.246;9.100;2023-04-02T07:17:40;6.97;;;2.92;;
14118;SDS011;7138;49.246;9.100;2023-04-02T07:20:08;5.47;;;2.53;;
14118;SDS011;7138;49.246;9.100;2023-04-02T07:22:51;6.40;;;2.67;;
14118;SDS011;7138;49.246;9.100;2023-04-02T07:25:18;6.07;;;2.38;;
14118;SDS011;7138;49.246;9.100;2023-04-02T07:27:44;5.15;;;2.85;;
14118;SDS011;7138;49.246;9.100;2023-04-02T07:30:10;5.50;;;2.67;;
14118;SDS011;7138;49.246;9.100;2023-04-02T07:32:37;5.28;;;2.90;;
14118;SDS011;7138;49.246;9.100;2023-04-02T07:35:03;4.88;;;2.63;;
14118;SDS011;7138;49.246;9.100;2023-04-02T07:37:30;4.22;;;2.40;;
14118;SDS011;7138;49.246;9.100;2023-04-02T07:39:56;6.18;;;2.50;;
14118;SDS011;7138;49.246;9.100;2023-04-02T07:42:23;5.13;;;2.45;;
14118;SDS011;7138;49.246;9.100;2023-04-02T07:44:49;4.18;;;2.30;;
14118;SDS011;7138;49.246;9.100;2023-04-02T07:47:15;5.15;;;2.20;;
14118;SDS011;7138;49.246;9.100;2023-04-02T07:49:41;5.75;;;2.03;;
14118;SDS011;7138;49.246;9.100;2023-04-02T07:52:07;4.00;;;2.20;;
14118;SDS011;7138;49.246;9.100;2023-04-02T07:54:32;4.70;;;2.00;;
14118;SDS011;7138;49.246;9.100;2023-04-02T07:56:59;3.63;;;1.88;;
14118;SDS011;7138;49.246;9.100;2023-04-02T07:59:27;7.43;;;2.00;;
14118;SDS011;7138;49.246;9.100;2023-04-02T08:01:52;4.70;;;1.77;;
14118;SDS011;7138;49.246;9.100;2023-04-02T08:04:19;4.20;;;2.00;;
14118;SDS011;7138;49.246;9.100;2023-04-02T08:06:47;3.28;;;1.67;;
14118;SDS011;7138;49.246;9.100;2023-04-02T08:09:14;4.32;;;1.52;;
14118;SDS011;7138;49.246;9.100;2023-04-02T08:11:41;5.15;;;1.52;;
14118;SDS011;7138;49.246;9.100;2023-04-02T08:14:07;3.80;;;1.00;;
14118;SDS011;7138;49.246;9.100;2023-04-02T08:16:45;2.47;;;0.95;;
14118;SDS011;7138;49.246;9.100;2023-04-02T08:21:40;2.20;;;1.00;;
14118;SDS011;7138;49.246;9.100;2023-04-02T08:24:06;2.95;;;1.20;;
14118;SDS011;7138;49.246;9.100;2023-04-02T08:26:32;2.67;;;1.13;;
14118;SDS011;7138;49.246;9.100;2023-04-02T08:28:58;2.60;;;1.30;;
14118;SDS011;7138;49.246;9.100;2023-04-02T08:31:23;3.30;;;1.50;;
14118;SDS011;7138;49.246;9.100;2023-04-02T08:33:51;4.35;;;1.45;;
14118;SDS011;7138;49.246;9.100;2023-04-02T08:36:18;4.20;;;1.45;;
14118;SDS011;7138;49.246;9.100;2023-04-02T08:38:51;2.90;;;1.30;;
14118;SDS011;7138;49.246;9.100;2023-04-02T08:41:18;3.38;;;1.40;;
14118;SDS011;7138;49.246;9.100;2023-04-02T08:44:04;2.80;;;1.52;;
14118;SDS011;7138;49.246;9.100;2023-04-02T08:46:46;3.58;;;1.60;;
14118;SDS011;7138;49.246;9.100;2023-04-02T08:49:21;3.75;;;1.60;;
14118;SDS011;7138;49.246;9.100;2023-04-02T08:51:55;4.60;;;1.48;;
14118;SDS011;7138;49.246;9.100;2023-04-02T08:54:23;3.65;;;1.58;;
14118;SDS011;7138;49.246;9.100;2023-04-02T08:56:54;2.95;;;1.35;;
14118;SDS011;7138;49.246;9.100;2023-04-02T08:59:29;3.17;;;1.20;;
14118;SDS011;7138;49.246;9.100;2023-04-02T09:01:59;2.45;;;0.95;;
14118;SDS011;7138;49.246;9.100;2023-04-02T09:04:50;2.85;;;1.00;;
14118;SDS011;7138;49.246;9.100;2023-04-02T09:07:16;2.60;;;1.30;;
14118;SDS011;7138;49.246;9.100;2023-04-02T09:09:42;1.92;;;0.90;;
14118;SDS011;7138;49.246;9.100;2023-04-02T09:12:15;2.83;;;1.00;;
14118;SDS011;7138;49.246;9.100;2023-04-02T09:14:47;1.83;;;1.02;;
14118;SDS011;7138;49.246;9.100;2023-04-02T09:17:29;3.10;;;1.35;;
14118;SDS011;7138;49.246;9.100;2023-04-02T09:19:57;1.95;;;1.15;;
14118;SDS011;7138;49.246;9.100;2023-04-02T09:22:33;2.65;;;1.23;;
14118;SDS011;7138;49.246;9.100;2023-04-02T09:25:00;2.17;;;0.98;;
14118;SDS011;7138;49.246;9.100;2023-04-02T09:29:58;2.50;;;1.20;;
14118;SDS011;7138;49.246;9.100;2023-04-02T09:32:43;3.05;;;1.10;;
14118;SDS011;7138;49.246;9.100;2023-04-02T09:35:17;2.63;;;1.00;;
14118;SDS011;7138;49.246;9.100;2023-04-02T09:37:46;2.40;;;1.02;;
14118;SDS011;7138;49.246;9.100;2023-04-02T09:40:22;2.03;;;0.98;;
14118;SDS011;7138;49.246;9.100;2023-04-02T09:43:00;1.60;;;0.80;;
14118;SDS011;7138;49.246;9.100;2023-04-02T09:45:36;2.55;;;1.00;;
14118;SDS011;7138;49.246;9.100;2023-04-02T09:48:02;2.30;;;0.93;;
14118;SDS011;7138;49.246;9.100;2023-04-02T09:50:49;2.42;;;0.90;;
14118;SDS011;7138;49.246;9.100;2023-04-02T09:53:29;3.58;;;1.10;;
14118;SDS011;7138;49.246;9.100;2023-04-02T09:56:06;2.08;;;0.90;;
14118;SDS011;7138;49.246;9.100;2023-04-02T09:58:38;2.33;;;1.00;;
14118;SDS011;7138;49.246;9.100;2023-04-02T10:01:14;3.53;;;2.05;;
14118;SDS011;7138;49.246;9.100;2023-04-02T10:03:54;1.70;;;0.90;;
14118;SDS011;7138;49.246;9.100;2023-04-02T10:06:21;3.00;;;1.23;;
14118;SDS011;7138;49.246;9.100;2023-04-02T10:08:47;2.88;;;1.00;;
14118;SDS011;7138;49.246;9.100;2023-04-02T10:11:14;3.13;;;1.50;;
14118;SDS011;7138;49.246;9.100;2023-04-02T10:13:48;2.70;;;1.70;;
14118;SDS011;7138;49.246;9.100;2023-04-02T10:16:20;2.83;;;1.70;;
14118;SDS011;7138;49.246;9.100;2023-04-02T10:18:57;3.10;;;1.83;;
14118;SDS011;7138;49.246;9.100;2023-04-02T10:21:28;3.17;;;1.90;;
14118;SDS011;7138;49.246;9.100;2023-04-02T10:23:59;3.63;;;2.03;;
14118;SDS011;7138;49.246;9.100;2023-04-02T10:32:15;4.00;;;1.92;;
14118;SDS011;7138;49.246;9.100;2023-04-02T10:34:49;2.97;;;1.70;;
14118;SDS011;7138;49.246;9.100;2023-04-02T10:37:42;2.40;;;1.50;;
14118;SDS011;7138;49.246;9.100;2023-04-02T10:40:41;3.03;;;1.27;;
14118;SDS011;7138;49.246;9.100;2023-04-02T10:46:19;2.60;;;1.40;;
14118;SDS011;7138;49.246;9.100;2023-04-02T10:48:59;2.80;;;1.40;;
14118;SDS011;7138;49.246;9.100;2023-04-02T10:51:38;3.33;;;1.70;;
14118;SDS011;7138;49.246;9.100;2023-04-02T10:54:18;2.60;;;1.60;;
14118;SDS011;7138;49.246;9.100;2023-04-02T10:56:59;2.83;;;1.38;;
14118;SDS011;7138;49.246;9.100;2023-04-02T10:59:33;3.95;;;1.40;;
14118;SDS011;7138;49.246;9.100;2023-04-02T11:02:07;3.90;;;1.80;;
14118;SDS011;7138;49.246;9.100;2023-04-02T11:04:53;2.80;;;1.60;;
14118;SDS011;7138;49.246;9.100;2023-04-02T11:07:25;2.03;;;1.00;;
14118;SDS011;7138;49.246;9.100;2023-04-02T11:09:57;2.08;;;1.10;;
14118;SDS011;7138;49.246;9.100;2023-04-02T11:12:28;1.10;;;0.45;;
14118;SDS011;7138;49.246;9.100;2023-04-02T11:15:07;1.88;;;0.60;;
14118;SDS011;7138;49.246;9.100;2023-04-02T11:17:42;1.80;;;0.40;;
14118;SDS011;7138;49.246;9.100;2023-04-02T11:23:29;0.45;;;0.20;;
14118;SDS011;7138;49.246;9.100;2023-04-02T11:29:13;0.45;;;0.20;;
14118;SDS011;7138;49.246;9.100;2023-04-02T11:31:46;0.80;;;0.30;;
14118;SDS011;7138;49.246;9.100;2023-04-02T11:34:16;0.93;;;0.30;;
14118;SDS011;7138;49.246;9.100;2023-04-02T11:37:31;1.13;;;0.30;;
14118;SDS011;7138;49.246;9.100;2023-04-02T11:40:00;0.85;;;0.30;;
14118;SDS011;7138;49.246;9.100;2023-04-02T11:42:32;1.10;;;0.40;;
14118;SDS011;7138;49.246;9.100;2023-04-02T11:48:27;1.70;;;0.30;;
14118;SDS011;7138;49.246;9.100;2023-04-02T11:50:55;0.90;;;0.40;;
14118;SDS011;7138;49.246;9.100;2023-04-02T11:53:23;1.02;;;0.30;;
14118;SDS011;7138;49.246;9.100;2023-04-02T11:56:06;1.33;;;0.30;;
14118;SDS011;7138;49.246;9.100;2023-04-02T11:58:46;1.75;;;0.40;;
14118;SDS011;7138;49.246;9.100;2023-04-02T12:01:49;0.57;;;0.22;;
14118;SDS011;7138;49.246;9.100;2023-04-02T12:07:40;1.45;;;0.40;;
14118;SDS011;7138;49.246;9.100;2023-04-02T12:13:46;1.45;;;0.47;;
14118;SDS011;7138;49.246;9.100;2023-04-02T12:16:17;0.47;;;0.20;;
14118;SDS011;7138;49.246;9.100;2023-04-02T12:18:46;1.45;;;0.40;;
14118;SDS011;7138;49.246;9.100;2023-04-02T12:21:19;1.70;;;0.55;;
14118;SDS011;7138;49.246;9.100;2023-04-02T12:23:48;0.60;;;0.20;;
14118;SDS011;7138;49.246;9.100;2023-04-02T12:26:29;0.22;;;0.20;;
14118;SDS011;7138;49.246;9.100;2023-04-02T12:29:15;0.77;;;0.30;;
14118;SDS011;7138;49.246;9.100;2023-04-02T12:31:48;1.33;;;0.30;;
14118;SDS011;7138;49.246;9.100;2023-04-02T12:34:14;0.68;;;0.30;;
14118;SDS011;7138;49.246;9.100;2023-04-02T12:36:52;2.42;;;0.40;;
14118;SDS011;7138;49.246;9.100;2023-04-02T12:39:21;0.95;;;0.38;;
14118;SDS011;7138;49.246;9.100;2023-04-02T12:41:47;0.70;;;0.30;;
14118;SDS011;7138;49.246;9.100;2023-04-02T12:44:14;2.03;;;0.40;;
14118;SDS011;7138;49.246;9.100;2023-04-02T12:46:45;1.10;;;0.30;;
14118;SDS011;7138;49.246;9.100;2023-04-02T12:49:19;1.45;;;0.60;;
14118;SDS011;7138;49.246;9.100;2023-04-02T12:51:57;2.10;;;0.50;;
14118;SDS011;7138;49.246;9.100;2023-04-02T12:54:28;0.73;;;0.35;;
14118;SDS011;7138;49.246;9.100;2023-04-02T13:02:59;2.08;;;0.70;;
14118;SDS011;7138;49.246;9.100;2023-04-02T13:05:43;1.40;;;0.60;;
14118;SDS011;7138;49.246;9.100;2023-04-02T13:08:15;1.23;;;0.40;;
14118;SDS011;7138;49.246;9.100;2023-04-02T13:10:43;3.15;;;0.80;;
14118;SDS011;7138;49.246;9.100;2023-04-02T13:13:12;1.45;;;0.60;;
14118;SDS011;7138;49.246;9.100;2023-04-02T13:15:47;2.70;;;0.57;;
14118;SDS011;7138;49.246;9.100;2023-04-02T13:18:48;7.70;;;0.95;;
14118;SDS011;7138;49.246;9.100;2023-04-02T13:21:22;1.48;;;0.60;;
14118;SDS011;7138;49.246;9.100;2023-04-02T13:23:51;1.45;;;0.60;;
14118;SDS011;7138;49.246;9.100;2023-04-02T13:26:18;2.30;;;0.70;;
14118;SDS011;7138;49.246;9.100;2023-04-02T13:28:56;1.38;;;0.50;;
14118;SDS011;7138;49.246;9.100;2023-04-02T13:31:25;1.60;;;0.50;;
14118;SDS011;7138;49.246;9.100;2023-04-02T13:33:52;1.55;;;0.75;;
14118;SDS011;7138;49.246;9.100;2023-04-02T13:36:18;3.13;;;0.70;;
14118;SDS011;7138;49.246;9.100;2023-04-02T13:38:43;1.60;;;0.50;;
14118;SDS011;7138;49.246;9.100;2023-04-02T13:41:14;3.03;;;0.77;;
14118;SDS011;7138;49.246;9.100;2023-04-02T13:43:46;2.45;;;0.90;;
14118;SDS011;7138;49.246;9.100;2023-04-02T13:46:15;2.00;;;0.88;;
14118;SDS011;7138;49.246;9.100;2023-04-02T13:48:47;4.90;;;1.50;;
14118;SDS011;7138;49.246;9.100;2023-04-02T13:51:15;1.30;;;0.60;;
14118;SDS011;7138;49.246;9.100;2023-04-02T13:53:43;1.80;;;0.70;;
14118;SDS011;7138;49.246;9.100;2023-04-02T13:56:13;2.05;;;0.80;;
14118;SDS011;7138;49.246;9.100;2023-04-02T13:58:38;1.33;;;0.60;;
14118;SDS011;7138;49.246;9.100;2023-04-02T14:01:04;1.55;;;0.70;;
14118;SDS011;7138;49.246;9.100;2023-04-02T14:03:31;2.97;;;0.77;;
14118;SDS011;7138;49.246;9.100;2023-04-02T14:06:00;1.23;;;0.50;;
14118;SDS011;7138;49.246;9.100;2023-04-02T14:08:38;1.52;;;0.60;;
14118;SDS011;7138;49.246;9.100;2023-04-02T14:11:24;1.63;;;0.60;;
14118;SDS011;7138;49.246;9.100;2023-04-02T14:14:09;2.15;;;0.77;;
14118;SDS011;7138;49.246;9.100;2023-04-02T14:17:07;1.65;;;0.68;;
14118;SDS011;7138;49.246;9.100;2023-04-02T14:19:47;1.38;;;0.60;;
14118;SDS011;7138;49.246;9.100;2023-04-02T14:22:33;1.20;;;0.40;;
14118;SDS011;7138;49.246;9.100;2023-04-02T14:25:15;3.63;;;0.73;;
14118;SDS011;7138;49.246;9.100;2023-04-02T14:27:52;1.88;;;0.65;;
14118;SDS011;7138;49.246;9.100;2023-04-02T14:30:34;4.43;;;1.60;;
14118;SDS011;7138;49.246;9.100;2023-04-02T14:33:16;1.30;;;0.50;;
14118;SDS011;7138;49.246;9.100;2023-04-02T14:36:02;1.30;;;0.50;;
14118;SDS011;7138;49.246;9.100;2023-04-02T14:38:40;1.65;;;0.73;;
14118;SDS011;7138;49.246;9.100;2023-04-02T14:41:20;1.80;;;0.70;;
14118;SDS011;7138;49.246;9.100;2023-04-02T14:43:56;2.17;;;0.50;;
14118;SDS011;7138;49.246;9.100;2023-04-02T14:46:26;1.40;;;0.50;;
14118;SDS011;7138;49.246;9.100;2023-04-02T14:48:56;1.17;;;0.43;;
14118;SDS011;7138;49.246;9.100;2023-04-02T14:51:29;1.67;;;0.80;;
14118;SDS011;7138;49.246;9.100;2023-04-02T14:54:04;1.20;;;0.52;;
14118;SDS011;7138;49.246;9.100;2023-04-02T14:56:37;1.33;;;0.50;;
14118;SDS011;7138;49.246;9.100;2023-04-02T14:59:22;1.52;;;0.60;;
14118;SDS011;7138;49.246;9.100;2023-04-02T15:01:55;1.40;;;0.52;;
14118;SDS011;7138;49.246;9.100;2023-04-02T15:04:30;1.52;;;0.70;;
14118;SDS011;7138;49.246;9.100;2023-04-02T15:07:02;1.65;;;0.60;;
14118;SDS011;7138;49.246;9.100;2023-04-02T15:09:44;1.55;;;0.70;;
14118;SDS011;7138;49.246;9.100;2023-04-02T15:12:21;2.13;;;0.80;;
14118;SDS011;7138;49.246;9.100;2023-04-02T15:14:53;2.95;;;0.88;;
14118;SDS011;7138;49.246;9.100;2023-04-02T15:17:28;1.75;;;0.90;;
14118;SDS011;7138;49.246;9.100;2023-04-02T15:19:57;2.25;;;0.98;;
14118;SDS011;7138;49.246;9.100;2023-04-02T15:22:37;2.10;;;0.80;;
14118;SDS011;7138;49.246;9.100;2023-04-02T15:25:15;2.35;;;0.98;;
14118;SDS011;7138;49.246;9.100;2023-04-02T15:27:56;2.15;;;0.95;;
14118;SDS011;7138;49.246;9.100;2023-04-02T15:30:37;1.92;;;0.93;;
14118;SDS011;7138;49.246;9.100;2023-04-02T15:33:25;2.63;;;0.93;;
14118;SDS011;7138;49.246;9.100;2023-04-02T15:36:20;2.00;;;1.00;;
14118;SDS011;7138;49.246;9.100;2023-04-02T15:39:02;2.28;;;1.00;;
14118;SDS011;7138;49.246;9.100;2023-04-02T15:41:58;2.08;;;0.90;;
14118;SDS011;7138;49.246;9.100;2023-04-02T15:44:40;2.88;;;0.77;;
14118;SDS011;7138;49.246;9.100;2023-04-02T15:47:25;2.95;;;0.98;;
14118;SDS011;7138;49.246;9.100;2023-04-02T15:50:05;1.60;;;0.70;;
14118;SDS011;7138;49.246;9.100;2023-04-02T15:53:00;1.95;;;0.90;;
14118;SDS011;7138;49.246;9.100;2023-04-02T15:55:40;2.17;;;1.08;;
14118;SDS011;7138;49.246;9.100;2023-04-02T15:58:17;1.80;;;0.80;;
14118;SDS011;7138;49.246;9.100;2023-04-02T16:01:09;2.20;;;1.00;;
14118;SDS011;7138;49.246;9.100;2023-04-02T16:04:00;7.28;;;1.95;;
14118;SDS011;7138;49.246;9.100;2023-04-02T16:07:18;2.50;;;1.20;;
14118;SDS011;7138;49.246;9.100;2023-04-02T16:10:01;2.42;;;1.30;;
14118;SDS011;7138;49.246;9.100;2023-04-02T16:12:36;3.25;;;1.35;;
14118;SDS011;7138;49.246;9.100;2023-04-02T16:15:10;3.38;;;1.20;;
14118;SDS011;7138;49.246;9.100;2023-04-02T16:17:42;2.63;;;1.27;;
14118;SDS011;7138;49.246;9.100;2023-04-02T16:20:17;2.97;;;1.60;;
14118;SDS011;7138;49.246;9.100;2023-04-02T16:22:49;2.63;;;1.30;;